Time;durP1;ratioP1;P1;durP2;ratioP2;P2;SDS_P1;SDS_P2;PMS_P1;PMS_P2;Temp;Humidity;BMP_temperature;BMP_pressure;BME280_temperature;BME280_humidity;BME280_pressure;Samples;Min_cycle;Max_cycle;Signal;HPM_P1;HPM_P2
2024/01/13 00:01:29;;;;;;;27.10;20.67;;;;;;;7.37;62.89;102907.59;4998757;28;98541;-68
2024/01/13 00:03:56;;;;;;;31.38;21.95;;;;;;;7.38;62.97;102904.91;5013400;28;97980;-68
2024/01/13 00:06:23;;;;;;;27.50;20.65;;;;;;;7.39;63.12;102903.97;5003155;28;97622;-68
2024/01/13 00:08:50;;;;;;;28.27;20.75;;;;;;;7.40;62.99;102902.19;5006829;28;97111;-68
2024/01/13 00:11:16;;;;;;;26.88;20.60;;;;;;;7.39;62.79;102898.63;5014411;28;97441;-68
2024/01/13 00:13:43;;;;;;;28.00;20.40;;;;;;;7.39;62.98;102905.78;5017238;28;98208;-68
2024/01/13 00:16:10;;;;;;;27.13;20.20;;;;;;;7.38;62.97;102898.69;5006931;28;97267;-68
2024/01/13 00:18:37;;;;;;;30.13;20.58;;;;;;;7.37;63.09;102900.47;5006270;28;97176;-68
2024/01/13 00:21:07;;;;;;;29.40;21.25;;;;;;;7.33;62.93;102897.00;5010764;27;97728;-68
2024/01/13 00:23:35;;;;;;;27.52;20.17;;;;;;;7.31;63.07;102898.84;5002960;28;99446;-68
2024/01/13 00:26:02;;;;;;;28.60;20.48;;;;;;;7.32;62.96;102900.59;4999117;28;97472;-68
2024/01/13 00:28:29;;;;;;;28.45;19.98;;;;;;;7.30;63.09;102894.41;4993205;28;97294;-68
2024/01/13 00:31:06;;;;;;;27.63;19.88;;;;;;;7.29;63.02;102897.13;5004326;28;97980;-67
2024/01/13 00:33:34;;;;;;;26.67;19.30;;;;;;;7.25;63.03;102890.09;4993427;28;97926;-68
2024/01/13 00:36:01;;;;;;;26.10;18.42;;;;;;;7.23;62.84;102895.47;5002160;28;97513;-68
2024/01/13 00:38:28;;;;;;;26.58;17.80;;;;;;;7.20;62.98;102887.53;4998969;28;97287;-68
2024/01/13 00:41:05;;;;;;;24.67;17.73;;;;;;;7.18;63.04;102884.00;4996579;28;97684;-68
2024/01/13 00:43:35;;;;;;;23.20;16.98;;;;;;;7.17;63.19;102870.69;5007610;28;97818;-68
2024/01/13 00:46:02;;;;;;;25.30;18.35;;;;;;;7.18;63.09;102872.44;4997525;28;97731;-67
2024/01/13 00:48:28;;;;;;;24.80;17.63;;;;;;;7.19;63.06;102874.19;4991182;28;97206;-68
2024/01/13 00:51:07;;;;;;;28.10;17.13;;;;;;;7.20;63.14;102859.94;4992098;28;97754;-68
2024/01/13 00:53:35;;;;;;;23.17;17.20;;;;;;;7.20;63.08;102854.59;4998216;28;97485;-68
2024/01/13 00:56:02;;;;;;;23.70;17.05;;;;;;;7.19;63.11;102859.03;4993232;28;97444;-68
2024/01/13 00:58:29;;;;;;;21.80;15.90;;;;;;;7.18;63.14;102848.41;5004835;28;97125;-68
2024/01/13 01:01:09;;;;;;;22.02;15.70;;;;;;;7.18;63.03;102843.94;5003593;28;97603;-68
2024/01/13 01:03:37;;;;;;;22.08;15.82;;;;;;;7.18;63.19;102838.59;4992234;28;97500;-68
2024/01/13 01:06:04;;;;;;;19.98;14.90;;;;;;;7.19;63.16;102842.13;5006300;28;97162;-68
2024/01/13 01:08:31;;;;;;;22.70;15.18;;;;;;;7.20;63.10;102841.22;4997737;28;97345;-67
2024/01/13 01:11:09;;;;;;;20.85;15.48;;;;;;;7.21;63.22;102842.97;5000621;28;97606;-68
2024/01/13 01:13:37;;;;;;;21.08;14.13;;;;;;;7.23;63.06;102836.69;4996390;27;97665;-68
2024/01/13 01:16:04;;;;;;;22.45;14.82;;;;;;;7.24;63.17;102833.09;4993936;28;98428;-68
2024/01/13 01:18:31;;;;;;;19.63;15.02;;;;;;;7.26;63.21;102839.28;4996116;28;96962;-67
2024/01/13 01:21:11;;;;;;;20.73;14.88;;;;;;;7.26;63.09;102843.75;4998459;28;97747;-67
2024/01/13 01:23:39;;;;;;;21.98;15.45;;;;;;;7.26;63.16;102847.28;4997754;28;97627;-68
2024/01/13 01:26:06;;;;;;;18.75;14.30;;;;;;;7.26;63.20;102841.06;5006659;28;97087;-68
2024/01/13 01:28:33;;;;;;;20.23;15.35;;;;;;;7.26;63.07;102839.28;4991374;28;97324;-68
2024/01/13 01:31:04;;;;;;;19.05;13.93;;;;;;;7.27;63.17;102840.16;5003546;28;97537;-68
2024/01/13 01:33:31;;;;;;;17.75;12.35;;;;;;;7.26;63.10;102835.72;4988624;28;97624;-68
2024/01/13 01:35:58;;;;;;;17.65;13.38;;;;;;;7.23;63.31;102833.13;4995055;28;97628;-68
2024/01/13 01:38:25;;;;;;;18.23;12.85;;;;;;;7.20;63.03;102823.41;5003358;28;97368;-67
2024/01/13 01:41:08;;;;;;;18.85;12.77;;;;;;;7.17;63.04;102825.25;4999099;28;98212;-67
2024/01/13 01:43:35;;;;;;;18.63;12.65;;;;;;;7.15;63.14;102816.41;5007287;28;97703;-67
2024/01/13 01:46:03;;;;;;;19.80;13.02;;;;;;;7.13;63.26;102819.13;4997117;28;97665;-68
2024/01/13 01:48:37;;;;;;;19.73;12.75;;;;;;;7.12;63.13;102820.03;5000749;28;97049;-68
2024/01/13 01:51:10;;;;;;;19.00;12.68;;;;;;;7.14;63.09;102820.88;4999308;28;97742;-68
2024/01/13 01:53:39;;;;;;;17.40;12.75;;;;;;;7.16;63.28;102820.84;5006668;28;97674;-67
2024/01/13 01:56:11;;;;;;;16.52;11.75;;;;;;;7.17;63.25;102815.47;5012075;28;97164;-68
2024/01/13 01:58:40;;;;;;;13.25;11.68;;;;;;;7.18;63.14;102821.69;5013846;28;97435;-68
2024/01/13 02:01:08;;;;;;;17.63;11.98;;;;;;;7.17;63.06;102819.91;4994781;28;99845;-68
2024/01/13 02:03:38;;;;;;;18.02;12.68;;;;;;;7.16;63.00;102816.38;5020122;28;97402;-68
2024/01/13 02:06:06;;;;;;;19.08;12.27;;;;;;;7.16;63.07;102815.50;5006087;27;97469;-68
2024/01/13 02:08:33;;;;;;;14.82;11.32;;;;;;;7.16;63.25;102815.50;5015963;28;97785;-68
2024/01/13 02:11:11;;;;;;;18.35;11.98;;;;;;;7.16;63.07;102810.16;5013419;28;97487;-68
2024/01/13 02:13:42;;;;;;;15.50;11.65;;;;;;;7.15;63.12;102806.59;5014239;28;97532;-68
2024/01/13 02:16:10;;;;;;;14.38;11.98;;;;;;;7.15;63.30;102795.91;5002223;28;97040;-68
2024/01/13 02:18:38;;;;;;;15.48;12.07;;;;;;;7.17;63.34;102790.53;5005723;28;97552;-67
2024/01/13 02:21:12;;;;;;;15.15;11.98;;;;;;;7.17;63.38;102783.38;5005555;28;97669;-68
2024/01/13 02:23:42;;;;;;;16.88;12.95;;;;;;;7.20;63.23;102782.44;4999343;28;97594;-68
2024/01/13 02:26:09;;;;;;;16.67;12.80;;;;;;;7.22;63.28;102780.59;5010655;28;97197;-68
2024/01/13 02:28:35;;;;;;;15.15;12.43;;;;;;;7.24;63.31;102778.75;5001560;28;97121;-68
2024/01/13 02:31:14;;;;;;;15.52;12.38;;;;;;;7.24;63.33;102781.44;4985284;28;100153;-68
2024/01/13 02:33:45;;;;;;;16.88;12.60;;;;;;;7.24;63.10;102781.44;4992318;28;97657;-68
2024/01/13 02:36:12;;;;;;;19.52;13.43;;;;;;;7.23;63.35;102779.69;4998689;28;96839;-68
2024/01/13 02:38:39;;;;;;;16.92;12.32;;;;;;;7.24;63.22;102773.41;4998310;28;97659;-67
2024/01/13 02:41:05;;;;;;;17.25;12.95;;;;;;;7.25;63.36;102764.47;4997434;28;98132;-68
2024/01/13 02:43:34;;;;;;;18.10;13.88;;;;;;;7.26;63.41;102753.75;5005087;28;97805;-68
2024/01/13 02:46:02;;;;;;;17.83;14.38;;;;;;;7.26;63.47;102751.06;4998853;27;97439;-68
2024/01/13 02:48:39;;;;;;;19.08;13.85;;;;;;;7.27;63.45;102746.59;5018187;28;97296;-68
2024/01/13 02:51:12;;;;;;;17.08;13.93;;;;;;;7.27;63.33;102741.25;5017329;28;98775;-67
2024/01/13 02:53:39;;;;;;;20.38;14.05;;;;;;;7.27;63.41;102734.13;5014067;28;97662;-68
2024/01/13 02:56:06;;;;;;;20.58;14.40;;;;;;;7.27;63.38;102714.53;5015238;28;97021;-67
2024/01/13 02:58:33;;;;;;;23.10;15.82;;;;;;;7.28;63.31;102713.63;5031228;27;96811;-67
2024/01/13 03:01:12;;;;;;;20.52;14.98;;;;;;;7.28;63.39;102718.97;5010586;28;97489;-68
2024/01/13 03:03:40;;;;;;;20.00;14.65;;;;;;;7.28;63.38;102702.94;4993758;28;97560;-68
2024/01/13 03:06:10;;;;;;;19.20;14.52;;;;;;;7.27;63.04;102694.03;5013730;28;96798;-67
2024/01/13 03:08:38;;;;;;;21.00;15.75;;;;;;;7.26;63.55;102688.75;5018436;27;97359;-68
2024/01/13 03:11:10;;;;;;;22.83;15.75;;;;;;;7.27;63.45;102698.50;5006400;27;100161;-67
2024/01/13 03:13:37;;;;;;;21.33;15.13;;;;;;;7.25;63.45;102692.31;4997048;28;97495;-68
2024/01/13 03:16:05;;;;;;;24.65;16.15;;;;;;;7.24;63.55;102695.91;5002494;28;97146;-68
2024/01/13 03:18:32;;;;;;;23.98;16.70;;;;;;;7.24;63.58;102691.44;5001581;27;98088;-68
2024/01/13 03:21:07;;;;;;;27.20;18.67;;;;;;;7.26;63.42;102688.75;5003112;28;99585;-67
2024/01/13 03:23:34;;;;;;;29.95;20.02;;;;;;;7.25;63.48;102679.84;4995657;27;97426;-68
2024/01/13 03:26:01;;;;;;;26.67;19.73;;;;;;;7.24;63.53;102677.22;5007014;28;97163;-68
2024/01/13 03:28:28;;;;;;;32.40;21.73;;;;;;;7.24;63.46;102678.09;5008294;28;97462;-68
2024/01/13 03:31:08;;;;;;;35.10;23.17;;;;;;;7.25;63.49;102674.50;4994145;28;98014;-67
2024/01/13 03:33:35;;;;;;;37.35;23.48;;;;;;;7.24;63.52;102664.72;4995103;28;97414;-67
2024/01/13 03:36:02;;;;;;;39.38;25.55;;;;;;;7.23;63.66;102676.34;4997109;27;96984;-67
2024/01/13 03:38:29;;;;;;;40.05;25.38;;;;;;;7.22;63.50;102669.25;4996525;28;97051;-68
2024/01/13 03:41:07;;;;;;;40.83;25.48;;;;;;;7.23;63.59;102659.44;5001030;28;97426;-68
2024/01/13 03:43:34;;;;;;;42.60;26.73;;;;;;;7.22;63.79;102652.34;4977215;28;100109;-67
2024/01/13 03:46:02;;;;;;;46.42;26.35;;;;;;;7.22;63.59;102644.31;4987464;27;97053;-67
2024/01/13 03:48:29;;;;;;;36.88;24.75;;;;;;;7.22;63.69;102647.88;5015711;28;97349;-68
2024/01/13 03:50:56;;;;;;;39.30;26.63;;;;;;;7.22;63.56;102647.00;5007362;28;97937;-68
2024/01/13 03:53:22;;;;;;;40.92;25.70;;;;;;;7.22;63.75;102641.66;5015774;27;97614;-67
2024/01/13 03:55:49;;;;;;;41.78;26.95;;;;;;;7.22;63.79;102637.19;5007440;28;96997;-67
2024/01/13 03:58:16;;;;;;;37.70;26.42;;;;;;;7.22;63.71;102633.63;4997073;28;96876;-68
2024/01/13 04:00:42;;;;;;;43.55;26.75;;;;;;;7.23;63.71;102644.28;5001249;28;98143;-68
2024/01/13 04:03:09;;;;;;;43.40;27.33;;;;;;;7.23;63.68;102646.94;5007691;28;97568;-68
2024/01/13 04:05:37;;;;;;;42.35;27.77;;;;;;;7.25;63.71;102644.22;5007245;28;96922;-68
2024/01/13 04:08:04;;;;;;;35.28;24.42;;;;;;;7.25;63.81;102647.78;5008217;28;97139;-68
2024/01/13 04:10:30;;;;;;;42.65;26.92;;;;;;;7.25;63.83;102630.88;5012834;28;99025;-68
2024/01/13 04:12:57;;;;;;;35.38;24.58;;;;;;;7.25;63.82;102629.06;5016581;28;97673;-68
2024/01/13 04:15:24;;;;;;;39.55;24.83;;;;;;;7.25;63.75;102626.41;4995585;28;97061;-67
2024/01/13 04:17:50;;;;;;;34.33;23.13;;;;;;;7.25;63.87;102629.06;5002853;28;97619;-67
2024/01/13 04:20:18;;;;;;;37.10;25.05;;;;;;;7.26;63.90;102630.81;5006416;28;98120;-68
2024/01/13 04:22:45;;;;;;;36.17;24.13;;;;;;;7.26;63.90;102619.25;5005272;28;97632;-68
2024/01/13 04:25:12;;;;;;;34.83;23.88;;;;;;;7.27;63.78;102623.69;4997867;27;97210;-67
2024/01/13 04:27:38;;;;;;;32.42;22.98;;;;;;;7.25;63.74;102621.06;4999514;28;97471;-68
2024/01/13 04:30:06;;;;;;;31.45;22.15;;;;;;;7.26;63.93;102608.56;4999145;28;98456;-68
2024/01/13 04:32:33;;;;;;;36.03;23.55;;;;;;;7.25;63.75;102607.69;5002842;28;97415;-68
2024/01/13 04:35:00;;;;;;;33.78;22.90;;;;;;;7.25;63.90;102602.34;4993717;28;96870;-67
2024/01/13 04:37:26;;;;;;;34.80;23.20;;;;;;;7.28;63.97;102609.41;5010716;28;97061;-68
2024/01/13 04:39:53;;;;;;;33.95;22.50;;;;;;;7.29;63.82;102612.03;5003261;28;97445;-67
2024/01/13 04:42:19;;;;;;;37.00;22.98;;;;;;;7.29;63.98;102614.69;4996559;28;98011;-68
2024/01/13 04:44:46;;;;;;;33.47;21.88;;;;;;;7.30;63.83;102612.91;4997996;28;97898;-68
2024/01/13 04:47:13;;;;;;;32.22;20.60;;;;;;;7.29;63.91;102611.16;4990076;28;98388;-68
2024/01/13 04:49:40;;;;;;;33.33;21.83;;;;;;;7.28;63.88;102609.41;5014346;28;97506;-68
2024/01/13 04:52:07;;;;;;;28.20;20.10;;;;;;;7.27;63.72;102604.97;5006956;28;98076;-68
2024/01/13 04:54:33;;;;;;;29.08;21.38;;;;;;;7.26;63.78;102609.44;5013383;27;96989;-68
2024/01/13 04:57:00;;;;;;;30.02;21.42;;;;;;;7.26;63.89;102608.56;5016604;28;97180;-67
2024/01/13 04:59:27;;;;;;;30.35;21.67;;;;;;;7.26;63.74;102598.75;5005391;28;97670;-68
2024/01/13 05:01:54;;;;;;;33.22;22.77;;;;;;;7.26;63.95;102597.88;5012287;28;97580;-68
2024/01/13 05:04:20;;;;;;;34.17;22.60;;;;;;;7.27;63.97;102592.50;5008458;28;97369;-68
2024/01/13 05:06:48;;;;;;;35.08;23.15;;;;;;;7.28;63.85;102591.56;5020382;28;96929;-68
2024/01/13 05:09:14;;;;;;;29.30;22.48;;;;;;;7.30;64.01;102599.53;5008985;27;97403;-68
2024/01/13 05:11:41;;;;;;;32.13;22.95;;;;;;;7.31;63.91;102596.81;5012527;28;98089;-68
2024/01/13 05:14:08;;;;;;;32.58;22.73;;;;;;;7.32;63.96;102603.91;5012255;28;97172;-68
2024/01/13 05:16:34;;;;;;;32.03;22.73;;;;;;;7.32;63.97;102595.03;4994681;28;97135;-68
2024/01/13 05:19:02;;;;;;;35.63;24.58;;;;;;;7.32;63.83;102598.56;4995425;28;97387;-68
2024/01/13 05:21:29;;;;;;;33.15;22.73;;;;;;;7.31;63.96;102594.16;5006022;28;98079;-67
2024/01/13 05:23:56;;;;;;;32.35;23.77;;;;;;;7.32;63.89;102597.69;5006081;28;98232;-68
2024/01/13 05:26:23;;;;;;;35.33;23.88;;;;;;;7.31;63.80;102598.63;5005942;27;97549;-68
2024/01/13 05:28:49;;;;;;;34.22;24.35;;;;;;;7.31;63.83;102607.50;4994174;28;97881;-68
2024/01/13 05:31:16;;;;;;;32.53;24.35;;;;;;;7.30;63.91;102607.56;5001845;28;97664;-68
2024/01/13 05:33:43;;;;;;;38.00;25.45;;;;;;;7.31;63.97;102612.84;4990094;28;97410;-68
2024/01/13 05:36:10;;;;;;;36.65;24.33;;;;;;;7.31;63.96;102607.50;4994015;28;97468;-68
2024/01/13 05:38:37;;;;;;;36.85;25.67;;;;;;;7.31;63.96;102612.84;5002932;28;97994;-67
2024/01/13 05:41:04;;;;;;;30.23;21.75;;;;;;;7.30;64.03;102605.75;5002890;28;97666;-68
2024/01/13 05:43:30;;;;;;;29.17;21.80;;;;;;;7.29;64.02;102609.34;5002164;28;96792;-68
2024/01/13 05:45:57;;;;;;;31.20;22.60;;;;;;;7.28;64.09;102594.25;5000859;28;96863;-68
2024/01/13 05:48:24;;;;;;;33.55;23.45;;;;;;;7.29;63.86;102573.72;5007163;28;97533;-68
2024/01/13 05:50:51;;;;;;;30.02;21.88;;;;;;;7.31;63.87;102577.22;5016710;28;97373;-68
2024/01/13 05:53:18;;;;;;;28.55;21.75;;;;;;;7.32;64.12;102568.28;5014001;28;97241;-66
2024/01/13 05:55:44;;;;;;;22.52;18.88;;;;;;;7.33;64.07;102551.34;5002130;28;97363;-67
2024/01/13 05:58:12;;;;;;;26.25;19.30;;;;;;;7.33;64.08;102540.66;5001781;28;97413;-70
2024/01/13 06:00:38;;;;;;;28.67;20.48;;;;;;;7.34;64.08;102535.25;5003641;28;97824;-67
2024/01/13 06:03:05;;;;;;;24.23;17.92;;;;;;;7.37;64.19;102530.75;5009623;28;97243;-66
2024/01/13 06:05:32;;;;;;;30.70;19.20;;;;;;;7.38;64.17;102540.50;5013929;27;97087;-67
2024/01/13 06:07:59;;;;;;;25.73;18.23;;;;;;;7.38;64.00;102544.06;5014082;28;97662;-67
2024/01/13 06:10:28;;;;;;;24.20;17.50;;;;;;;7.38;63.99;102546.72;5007386;28;98055;-67
2024/01/13 06:12:56;;;;;;;23.42;16.40;;;;;;;7.39;64.17;102548.47;4996884;28;98250;-67
2024/01/13 06:15:26;;;;;;;24.83;15.30;;;;;;;7.38;64.16;102560.09;5003623;28;97126;-67
2024/01/13 06:17:55;;;;;;;21.23;15.20;;;;;;;7.36;64.16;102577.09;4990453;28;98159;-67
2024/01/13 06:20:22;;;;;;;20.88;15.05;;;;;;;7.34;63.99;102561.09;4992507;28;97620;-67
2024/01/13 06:22:48;;;;;;;21.48;15.82;;;;;;;7.33;64.14;102543.31;5003993;28;98132;-67
2024/01/13 06:25:15;;;;;;;20.67;15.57;;;;;;;7.33;64.05;102544.19;4996542;27;97737;-66
2024/01/13 06:27:42;;;;;;;24.65;16.20;;;;;;;7.33;63.99;102546.88;5003442;28;97527;-66
2024/01/13 06:30:10;;;;;;;24.17;15.70;;;;;;;7.34;63.91;102542.41;4989199;28;98174;-67
2024/01/13 06:32:38;;;;;;;21.40;16.08;;;;;;;7.34;64.00;102542.41;4998942;28;97112;-67
2024/01/13 06:35:06;;;;;;;22.80;15.30;;;;;;;7.34;64.04;102523.69;4996734;28;97032;-67
2024/01/13 06:37:32;;;;;;;24.35;15.70;;;;;;;7.34;64.20;102508.53;5000952;28;100196;-66
2024/01/13 06:39:59;;;;;;;24.50;16.30;;;;;;;7.35;64.13;102490.69;4993627;28;97431;-67
2024/01/13 06:42:25;;;;;;;23.08;16.40;;;;;;;7.36;64.23;102471.06;4989236;28;97179;-67
2024/01/13 06:44:52;;;;;;;28.83;17.55;;;;;;;7.36;63.97;102463.03;5003132;28;97153;-67
2024/01/13 06:47:20;;;;;;;27.45;16.67;;;;;;;7.38;64.06;102469.22;4985569;28;97483;-67
2024/01/13 06:49:46;;;;;;;24.73;17.40;;;;;;;7.39;64.08;102468.28;5013842;28;97990;-67
2024/01/13 06:52:13;;;;;;;28.27;18.25;;;;;;;7.40;63.98;102467.38;5018513;27;97316;-67
2024/01/13 06:54:41;;;;;;;34.35;19.85;;;;;;;7.40;64.09;102462.03;5016575;28;97442;-67
2024/01/13 06:57:07;;;;;;;36.25;20.05;;;;;;;7.41;64.16;102468.25;5016878;28;97581;-67
2024/01/13 06:59:34;;;;;;;35.85;20.05;;;;;;;7.39;64.17;102464.75;5004658;28;97909;-66
2024/01/13 07:02:01;;;;;;;36.60;20.77;;;;;;;7.39;64.00;102454.94;5008960;28;96808;-67
2024/01/13 07:04:28;;;;;;;41.25;21.67;;;;;;;7.39;64.09;102454.06;5020213;28;97344;-66
2024/01/13 07:06:55;;;;;;;37.40;20.90;;;;;;;7.40;64.15;102454.00;5005875;28;97798;-67
2024/01/13 07:09:22;;;;;;;37.63;21.67;;;;;;;7.40;64.09;102451.34;5014348;28;99110;-67
2024/01/13 07:11:49;;;;;;;38.97;22.35;;;;;;;7.41;64.28;102449.53;5022896;28;96891;-67
2024/01/13 07:14:16;;;;;;;36.30;21.10;;;;;;;7.41;64.21;102450.41;5000319;28;96993;-67
2024/01/13 07:16:43;;;;;;;44.67;23.25;;;;;;;7.42;64.25;102446.81;5000279;28;98095;-67
2024/01/13 07:19:10;;;;;;;36.97;21.35;;;;;;;7.44;64.15;102449.47;4997236;28;98171;-67
2024/01/13 07:21:38;;;;;;;35.45;20.13;;;;;;;7.45;64.35;102448.53;4992677;28;96886;-67
2024/01/13 07:24:12;;;;;;;35.38;19.27;;;;;;;7.45;64.30;102454.75;4999456;28;97615;-67
2024/01/13 07:26:39;;;;;;;30.95;18.52;;;;;;;7.45;64.26;102438.72;4996495;28;99343;-67
2024/01/13 07:29:06;;;;;;;32.53;18.20;;;;;;;7.46;64.24;102434.25;5007750;28;97666;-67
2024/01/13 07:31:33;;;;;;;32.75;19.00;;;;;;;7.46;64.17;102426.25;5004182;28;97655;-67
2024/01/13 07:34:01;;;;;;;32.60;20.10;;;;;;;7.46;64.14;102419.09;5010634;28;96786;-67
2024/01/13 07:36:28;;;;;;;31.42;18.40;;;;;;;7.47;64.32;102398.59;5008333;28;97855;-67
2024/01/13 07:38:55;;;;;;;33.78;20.45;;;;;;;7.47;64.25;102401.25;5015152;28;97778;-67
2024/01/13 07:41:21;;;;;;;32.92;19.42;;;;;;;7.48;64.40;102401.19;5002725;28;97076;-67
2024/01/13 07:43:48;;;;;;;39.92;21.67;;;;;;;7.50;64.27;102414.53;5003907;28;96944;-68
2024/01/13 07:46:15;;;;;;;38.33;21.30;;;;;;;7.50;64.41;102417.19;4997447;28;97624;-67
2024/01/13 07:48:42;;;;;;;33.33;21.00;;;;;;;7.49;64.41;102410.97;5006840;28;98191;-67
2024/01/13 07:51:09;;;;;;;35.55;21.20;;;;;;;7.49;64.27;102410.97;5020268;27;97169;-67
2024/01/13 07:53:50;;;;;;;33.55;19.67;;;;;;;7.51;64.37;102421.63;4993528;28;97893;-67
2024/01/13 07:56:17;;;;;;;35.50;22.40;;;;;;;7.50;64.20;102418.06;4995271;28;97488;-67
2024/01/13 07:58:46;;;;;;;33.67;21.05;;;;;;;7.51;64.38;102405.56;5003882;28;97506;-67
2024/01/13 08:01:13;;;;;;;32.15;20.63;;;;;;;7.50;64.33;102407.38;4999058;28;97349;-66
2024/01/13 08:03:53;;;;;;;34.95;20.73;;;;;;;7.51;64.32;102390.41;5001414;28;97117;-67
2024/01/13 08:06:22;;;;;;;31.80;20.70;;;;;;;7.52;64.16;102404.66;4991261;28;98141;-67
2024/01/13 08:08:50;;;;;;;31.60;20.83;;;;;;;7.52;64.39;102405.53;4988353;28;100304;-67
2024/01/13 08:11:17;;;;;;;32.92;20.58;;;;;;;7.52;64.17;102405.53;5005243;28;97275;-67
2024/01/13 08:14:02;;;;;;;28.80;19.60;;;;;;;7.51;64.29;102411.78;4996092;28;97122;-67
2024/01/13 08:16:29;;;;;;;26.73;18.77;;;;;;;7.50;64.33;102399.34;5003167;28;97443;-67
2024/01/13 08:18:57;;;;;;;26.85;18.60;;;;;;;7.51;64.41;102402.91;5008609;28;97521;-67
2024/01/13 08:21:24;;;;;;;26.85;18.67;;;;;;;7.51;64.41;102401.09;5003390;28;97087;-67
2024/01/13 08:24:05;;;;;;;25.30;17.50;;;;;;;7.54;64.23;102411.69;4993359;28;97090;-66
2024/01/13 08:26:32;;;;;;;23.10;16.70;;;;;;;7.54;64.31;102409.00;5003666;28;97499;-67
2024/01/13 08:28:59;;;;;;;22.45;16.88;;;;;;;7.55;64.28;102421.47;4994831;28;97578;-67
2024/01/13 08:31:26;;;;;;;24.73;18.25;;;;;;;7.54;64.58;102411.69;5003292;28;97174;-67
2024/01/13 08:34:06;;;;;;;25.05;18.10;;;;;;;7.56;64.33;102409.84;5009074;28;97220;-67
2024/01/13 08:36:32;;;;;;;22.35;17.42;;;;;;;7.56;64.27;102401.81;5002086;28;97909;-66
2024/01/13 08:38:59;;;;;;;27.02;19.05;;;;;;;7.57;64.33;102400.88;5009154;28;97680;-67
2024/01/13 08:41:26;;;;;;;27.38;19.40;;;;;;;7.57;64.33;102408.91;4998901;28;97186;-66
2024/01/13 08:44:00;;;;;;;26.98;20.02;;;;;;;7.56;64.13;102401.81;5009915;28;96896;-66
2024/01/13 08:46:27;;;;;;;27.02;20.38;;;;;;;7.58;64.09;102393.75;4994411;28;97638;-66
2024/01/13 08:48:54;;;;;;;26.25;19.08;;;;;;;7.59;64.30;102390.16;5010480;28;97603;-67
2024/01/13 08:51:22;;;;;;;23.48;18.30;;;;;;;7.59;64.26;102382.13;5021150;27;97229;-67
2024/01/13 08:54:03;;;;;;;26.30;18.20;;;;;;;7.59;64.21;102390.16;4994045;28;97208;-66
2024/01/13 08:56:36;;;;;;;26.10;18.50;;;;;;;7.59;64.13;102395.50;5013298;27;100436;-67
2024/01/13 08:59:05;;;;;;;21.85;17.23;;;;;;;7.59;64.11;102401.72;5015954;28;98214;-67
2024/01/13 09:01:32;;;;;;;23.08;17.33;;;;;;;7.57;64.22;102397.34;5004095;28;97080;-66
2024/01/13 09:04:09;;;;;;;22.40;18.10;;;;;;;7.57;64.14;102403.56;5008073;28;97335;-67
2024/01/13 09:06:37;;;;;;;24.60;17.20;;;;;;;7.57;64.21;102403.56;5002797;28;97470;-67
2024/01/13 09:09:07;;;;;;;23.58;18.40;;;;;;;7.58;64.14;102407.13;5011360;28;97607;-66
2024/01/13 09:11:35;;;;;;;24.83;19.60;;;;;;;7.58;64.05;102404.44;4999113;28;97259;-66
2024/01/13 09:14:10;;;;;;;;;;;;;;;7.58;64.10;102396.41;5002745;28;97264;-66
2024/01/13 09:16:38;;;;;;;23.13;17.13;;;;;;;7.61;63.86;102389.16;4994076;28;98467;-67
2024/01/13 09:19:06;;;;;;;28.60;19.77;;;;;;;7.58;64.06;102391.94;5001447;28;97737;-66
2024/01/13 09:21:33;;;;;;;26.50;19.38;;;;;;;7.56;63.81;102398.28;4999782;27;97571;-67
2024/01/13 09:24:09;;;;;;;30.50;19.60;;;;;;;7.53;63.96;102395.69;5003145;28;97309;-66
2024/01/13 09:26:41;;;;;;;25.98;19.52;;;;;;;7.51;63.93;102390.41;4991369;28;98276;-67
2024/01/13 09:29:15;;;;;;;24.65;20.10;;;;;;;7.50;63.84;102396.69;4995992;28;97424;-67
2024/01/13 09:31:43;;;;;;;23.55;18.58;;;;;;;7.50;63.91;102394.00;5004223;28;97237;-67
2024/01/13 09:34:10;;;;;;;24.83;19.85;;;;;;;7.50;63.80;102377.09;5009950;28;97881;-66
2024/01/13 09:36:40;;;;;;;25.95;19.02;;;;;;;7.51;64.05;102377.03;5008369;27;97969;-66
2024/01/13 09:39:17;;;;;;;25.40;18.48;;;;;;;7.53;63.92;102374.31;5006575;28;97841;-67
2024/01/13 09:41:46;;;;;;;21.33;16.88;;;;;;;7.55;64.01;102372.47;4995608;28;97201;-66
2024/01/13 09:44:27;;;;;;;22.00;17.52;;;;;;;7.53;63.75;102367.16;5004988;28;97576;-66
2024/01/13 09:46:58;;;;;;;19.35;15.82;;;;;;;7.53;63.99;102359.16;4988546;28;97582;-66
2024/01/13 09:49:30;;;;;;;23.00;16.42;;;;;;;7.53;63.85;102367.16;5002510;28;97582;-67
2024/01/13 09:52:02;;;;;;;18.75;14.75;;;;;;;7.54;63.86;102357.34;4992981;28;97484;-66
2024/01/13 09:54:30;;;;;;;17.83;13.88;;;;;;;7.54;63.82;102363.56;4994840;28;97017;-66
2024/01/13 09:56:57;;;;;;;17.83;13.85;;;;;;;7.55;63.80;102359.09;5004043;28;97622;-66
2024/01/13 09:59:28;;;;;;;18.48;13.70;;;;;;;7.55;63.88;102346.59;4999225;28;98052;-66
2024/01/13 10:01:59;;;;;;;19.25;14.63;;;;;;;7.56;63.69;102356.38;4999347;28;97264;-66
2024/01/13 10:04:26;;;;;;;19.00;14.32;;;;;;;7.57;63.77;102358.13;4996769;28;97263;-67
2024/01/13 10:06:54;;;;;;;22.65;15.90;;;;;;;7.58;63.87;102353.66;4998200;28;97554;-67
2024/01/13 10:09:21;;;;;;;22.35;17.27;;;;;;;7.59;63.76;102356.25;5000627;28;97461;-66
2024/01/13 10:12:08;;;;;;;22.38;15.23;;;;;;;7.60;63.86;102352.66;4998529;28;96830;-66
2024/01/13 10:14:39;;;;;;;18.17;14.23;;;;;;;7.59;63.77;102350.91;5000580;28;97444;-67
2024/01/13 10:17:09;;;;;;;20.27;15.70;;;;;;;7.60;63.84;102338.41;5003520;28;97490;-66
2024/01/13 10:19:40;;;;;;;19.77;15.75;;;;;;;7.60;63.67;102355.34;5001156;28;97507;-66
2024/01/13 10:22:08;;;;;;;22.17;15.73;;;;;;;7.60;64.07;102350.00;5003907;28;97302;-66
2024/01/13 10:24:35;;;;;;;26.45;17.65;;;;;;;7.61;63.53;102342.84;4999952;28;97186;-66
2024/01/13 10:27:08;;;;;;;21.40;16.52;;;;;;;7.60;63.73;102339.28;5002569;28;98040;-66
2024/01/13 10:29:37;;;;;;;19.90;15.63;;;;;;;7.61;63.62;102329.47;4998924;28;98173;-66
2024/01/13 10:32:08;;;;;;;20.27;14.65;;;;;;;7.60;63.80;102336.63;5002925;28;97237;-67
2024/01/13 10:34:36;;;;;;;20.35;16.05;;;;;;;7.60;63.69;102333.94;5004046;28;97198;-66
2024/01/13 10:37:09;;;;;;;22.42;15.32;;;;;;;7.59;63.64;102332.19;5003394;28;97539;-67
2024/01/13 10:39:37;;;;;;;18.52;14.82;;;;;;;7.60;63.76;102322.38;5006826;28;97636;-67
2024/01/13 10:42:08;;;;;;;19.50;14.57;;;;;;;7.58;63.74;102319.75;5006070;28;97099;-67
2024/01/13 10:44:40;;;;;;;18.55;14.65;;;;;;;7.59;63.81;102310.81;5006140;28;97427;-67
2024/01/13 10:47:13;;;;;;;20.35;15.50;;;;;;;7.59;63.68;102305.47;5000943;28;97385;-67
2024/01/13 10:49:42;;;;;;;18.98;15.10;;;;;;;7.59;63.62;102302.78;4995142;28;97793;-67
2024/01/13 10:52:13;;;;;;;18.58;14.18;;;;;;;7.59;63.77;102304.59;5003243;28;97153;-66
2024/01/13 10:54:41;;;;;;;18.45;14.90;;;;;;;7.58;63.47;102292.16;5003262;28;97443;-67
2024/01/13 10:57:12;;;;;;;18.25;15.13;;;;;;;7.58;63.63;102298.38;5001780;28;98176;-66
2024/01/13 10:59:41;;;;;;;21.02;14.70;;;;;;;7.57;63.64;102304.66;5001037;28;97680;-67
2024/01/13 11:02:12;;;;;;;18.23;14.43;;;;;;;7.58;63.54;102305.53;5002216;28;96902;-67
2024/01/13 11:04:44;;;;;;;20.25;15.50;;;;;;;7.58;63.55;102301.03;5002403;28;98258;-66
2024/01/13 11:07:11;;;;;;;23.00;15.32;;;;;;;7.59;63.60;102316.16;5003898;28;97730;-67
2024/01/13 11:09:40;;;;;;;21.65;15.23;;;;;;;7.59;63.45;102317.97;5005951;28;100309;-66
2024/01/13 11:12:20;;;;;;;23.48;16.33;;;;;;;7.58;63.72;102317.09;5003075;28;97088;-67
2024/01/13 11:15:19;;;;;;;18.98;14.63;;;;;;;7.57;63.67;102309.13;5002972;28;98109;-66
2024/01/13 11:17:46;;;;;;;18.10;14.68;;;;;;;7.55;63.51;102301.16;4999542;28;97827;-66
2024/01/13 11:20:17;;;;;;;19.13;14.35;;;;;;;7.54;63.58;102304.75;5003596;28;98448;-67
2024/01/13 11:22:56;;;;;;;22.90;16.15;;;;;;;7.54;63.53;102301.22;5004096;28;97432;-67
2024/01/13 11:25:26;;;;;;;22.35;15.63;;;;;;;7.54;63.47;102309.22;5004066;28;97086;-66